createdAt,value
2018-06-01T00:00:13.650Z,9.60
2018-06-01T00:02:40.221Z,9.43
2018-06-01T00:05:06.789Z,10.87
2018-06-01T00:07:33.372Z,8.87
2018-06-01T00:09:59.945Z,12.63
2018-06-01T00:12:26.545Z,10.80
2018-06-01T00:14:53.113Z,10.30
2018-06-01T00:17:19.688Z,9.10
2018-06-01T00:19:46.256Z,9.93
2018-06-01T00:22:12.835Z,11.07
2018-06-01T00:24:39.417Z,11.63
2018-06-01T00:27:05.989Z,13.63
2018-06-01T00:29:32.569Z,9.60
2018-06-01T00:31:59.151Z,10.17
2018-06-01T00:34:25.735Z,11.03
2018-06-01T00:36:52.317Z,12.47
2018-06-01T00:39:18.894Z,11.37
2018-06-01T00:41:45.466Z,11.43
2018-06-01T00:44:12.042Z,10.30
2018-06-01T00:46:38.622Z,10.23
2018-06-01T00:49:05.192Z,10.50
2018-06-01T00:51:31.776Z,12.60
2018-06-01T00:53:58.346Z,16.10
2018-06-01T00:56:24.912Z,13.67
2018-06-01T00:58:51.490Z,10.63
2018-06-01T01:01:18.061Z,10.00
2018-06-01T01:03:44.633Z,10.87
2018-06-01T01:06:11.221Z,10.50
2018-06-01T01:08:37.798Z,12.07
2018-06-01T01:11:04.405Z,11.20
2018-06-01T01:13:30.979Z,11.20
2018-06-01T01:15:57.563Z,12.40
2018-06-01T01:18:24.141Z,12.53
2018-06-01T01:20:50.709Z,11.50
2018-06-01T01:23:17.285Z,12.40
2018-06-01T01:25:43.873Z,12.20
2018-06-01T01:28:10.453Z,12.63
2018-06-01T01:30:37.033Z,16.20
2018-06-01T01:33:03.679Z,13.37
2018-06-01T01:35:30.455Z,15.37
2018-06-01T01:37:57.072Z,12.87
2018-06-01T01:40:23.646Z,13.37
2018-06-01T01:42:50.238Z,13.30
2018-06-01T01:45:16.813Z,15.03
2018-06-01T01:47:43.396Z,14.70
2018-06-01T01:50:09.977Z,12.33
2018-06-01T01:52:36.617Z,12.47
2018-06-01T01:55:03.232Z,14.07
2018-06-01T01:57:29.846Z,13.57
2018-06-01T01:59:56.432Z,13.40
2018-06-01T02:02:23.005Z,13.60
2018-06-01T02:04:49.626Z,12.83
2018-06-01T02:07:16.197Z,14.27
2018-06-01T02:09:42.776Z,14.33
2018-06-01T02:12:09.378Z,13.77
2018-06-01T02:14:35.954Z,15.57
2018-06-01T02:17:02.568Z,12.70
2018-06-01T02:19:29.153Z,12.13
2018-06-01T02:21:55.730Z,12.67
2018-06-01T02:24:22.301Z,13.73
2018-06-01T02:26:48.884Z,13.20
2018-06-01T02:29:15.485Z,16.73
2018-06-01T02:31:42.085Z,17.23
2018-06-01T02:34:08.657Z,17.40
2018-06-01T02:36:36.214Z,18.40
2018-06-01T02:39:02.797Z,19.10
2018-06-01T02:41:29.370Z,19.73
2018-06-01T02:43:55.948Z,21.57
2018-06-01T02:46:22.554Z,21.30
2018-06-01T02:48:49.193Z,22.83
2018-06-01T02:51:15.774Z,23.00
2018-06-01T02:53:42.369Z,24.17
2018-06-01T02:56:08.966Z,23.20
2018-06-01T02:58:35.548Z,25.17
2018-06-01T03:01:02.129Z,27.40
2018-06-01T03:03:28.708Z,28.53
2018-06-01T03:05:55.294Z,26.17
2018-06-01T03:08:21.898Z,29.30
2018-06-01T03:10:48.527Z,29.40
2018-06-01T03:13:15.102Z,28.03
2018-06-01T03:15:41.684Z,32.90
2018-06-01T03:18:08.258Z,32.00
2018-06-01T03:20:34.837Z,35.70
2018-06-01T03:23:01.409Z,24.13
2018-06-01T03:25:28.073Z,15.90
2018-06-01T03:27:54.643Z,12.17
2018-06-01T03:30:21.226Z,15.10
2018-06-01T03:32:47.790Z,11.73
2018-06-01T03:35:14.363Z,14.60
2018-06-01T03:37:40.984Z,16.53
2018-06-01T03:40:07.661Z,15.53
2018-06-01T03:42:34.251Z,25.13
2018-06-01T03:45:00.855Z,12.73
2018-06-01T03:47:27.432Z,48.67
2018-06-01T03:49:55.529Z,141.70
2018-06-01T03:52:23.152Z,63.03
2018-06-01T03:54:49.813Z,44.63
2018-06-01T03:57:16.395Z,25.13
2018-06-01T03:59:42.969Z,16.73
2018-06-01T04:02:09.546Z,24.50
2018-06-01T04:04:36.122Z,9.27
2018-06-01T04:07:02.696Z,10.90
2018-06-01T04:09:29.269Z,9.77
2018-06-01T04:11:55.868Z,8.70
2018-06-01T04:14:22.449Z,11.30
2018-06-01T04:16:49.022Z,9.53
2018-06-01T04:19:15.700Z,9.43
2018-06-01T04:21:42.319Z,10.27
2018-06-01T04:24:08.901Z,12.27
2018-06-01T04:26:35.479Z,9.40
2018-06-01T04:29:02.070Z,6.03
2018-06-01T04:31:28.649Z,7.93
2018-06-01T04:33:55.219Z,9.70
2018-06-01T04:36:21.800Z,7.63
2018-06-01T04:38:48.373Z,13.83
2018-06-01T04:41:14.980Z,8.33
2018-06-01T04:43:41.567Z,8.90
2018-06-01T04:46:08.150Z,13.57
2018-06-01T04:48:34.722Z,7.43
2018-06-01T04:51:01.322Z,6.40
2018-06-01T04:53:27.898Z,13.97
2018-06-01T04:55:54.548Z,7.80
2018-06-01T04:58:21.129Z,9.17
2018-06-01T05:00:47.697Z,7.47
2018-06-01T05:03:14.267Z,9.70
2018-06-01T05:05:40.831Z,8.27
2018-06-01T05:08:08.253Z,7.73
2018-06-01T05:10:34.813Z,6.13
2018-06-01T05:13:01.407Z,6.63
2018-06-01T05:15:28.056Z,6.90
2018-06-01T05:17:54.609Z,7.50
2018-06-01T05:20:22.223Z,8.70
2018-06-01T05:22:48.794Z,7.73
2018-06-01T05:25:15.369Z,11.63
2018-06-01T05:27:41.979Z,12.30
2018-06-01T05:30:08.558Z,6.73
2018-06-01T05:32:35.143Z,8.43
2018-06-01T05:35:01.784Z,7.73
2018-06-01T05:37:28.341Z,7.73
2018-06-01T05:39:54.963Z,9.67
2018-06-01T05:42:21.553Z,11.70
2018-06-01T05:44:48.138Z,15.50
2018-06-01T05:47:14.778Z,15.83
2018-06-01T05:49:41.315Z,17.27
2018-06-01T05:52:10.917Z,18.50
2018-06-01T05:54:37.674Z,17.13
2018-06-01T05:57:04.448Z,17.10
2018-06-01T05:59:31.006Z,20.37
2018-06-01T06:01:57.692Z,18.90
2018-06-01T06:04:26.085Z,16.60
2018-06-01T06:06:59.513Z,19.67
2018-06-01T06:09:26.099Z,21.60
2018-06-01T06:11:52.693Z,21.20
2018-06-01T06:14:19.628Z,22.40
2018-06-01T06:16:46.287Z,21.07
2018-06-01T06:19:12.873Z,25.07
2018-06-01T06:21:39.450Z,24.17
2018-06-01T06:24:06.042Z,25.10
2018-06-01T06:26:32.630Z,24.63
2018-06-01T06:28:59.240Z,28.17
2018-06-01T06:31:25.853Z,26.27
2018-06-01T06:33:52.401Z,28.07
2018-06-01T06:36:19.029Z,30.00
2018-06-01T06:38:48.221Z,33.70
2018-06-01T06:41:15.377Z,35.13
2018-06-01T06:43:41.950Z,33.17
2018-06-01T06:46:08.545Z,32.53
2018-06-01T06:48:36.014Z,34.77
2018-06-01T06:51:03.840Z,33.87
2018-06-01T06:53:30.453Z,39.20
2018-06-01T06:55:57.047Z,33.30
2018-06-01T06:58:23.621Z,39.07
2018-06-01T07:00:50.281Z,34.83
2018-06-01T07:03:16.878Z,34.90
2018-06-01T07:05:44.381Z,32.87
2018-06-01T07:08:13.507Z,32.23
2018-06-01T07:10:40.136Z,37.50
2018-06-01T07:13:06.693Z,31.10
2018-06-01T07:15:33.282Z,31.83
2018-06-01T07:17:59.874Z,33.40
2018-06-01T07:20:26.482Z,33.90
2018-06-01T07:22:53.154Z,34.03
2018-06-01T07:25:19.789Z,40.90
2018-06-01T07:27:46.409Z,39.20
2018-06-01T07:30:12.975Z,37.07
2018-06-01T07:32:39.549Z,38.27
2018-06-01T07:35:06.143Z,34.50
2018-06-01T07:37:33.319Z,34.03
2018-06-01T07:39:59.955Z,33.23
2018-06-01T07:42:26.546Z,39.70
2018-06-01T07:44:53.140Z,35.83
2018-06-01T07:47:19.716Z,35.73
2018-06-01T07:49:47.158Z,38.17
2018-06-01T07:52:13.770Z,36.60
2018-06-01T07:54:40.390Z,37.90
2018-06-01T07:57:07.694Z,32.93
2018-06-01T07:59:34.286Z,36.47
2018-06-01T08:02:00.908Z,36.70
2018-06-01T08:04:27.477Z,39.90
2018-06-01T08:06:54.065Z,41.10
2018-06-01T08:09:20.657Z,38.00
2018-06-01T08:11:48.630Z,39.47
2018-06-01T08:14:15.297Z,38.70
2018-06-01T08:16:42.740Z,39.60
2018-06-01T08:19:09.297Z,34.50
2018-06-01T08:21:35.882Z,42.37
2018-06-01T08:24:02.508Z,40.27
2018-06-01T08:26:29.087Z,44.00
2018-06-01T08:28:55.678Z,42.70
2018-06-01T08:31:22.268Z,41.13
2018-06-01T08:33:48.839Z,43.13
2018-06-01T08:36:15.421Z,44.43
2018-06-01T08:38:42.016Z,48.73
2018-06-01T08:41:08.593Z,44.60
2018-06-01T08:43:35.180Z,43.37
2018-06-01T08:46:01.760Z,51.47
2018-06-01T08:48:28.357Z,52.07
2018-06-01T08:50:54.935Z,48.00
2018-06-01T08:53:21.512Z,47.27
2018-06-01T08:55:48.089Z,46.47
2018-06-01T08:58:14.676Z,51.20
2018-06-01T09:00:41.261Z,50.63
2018-06-01T09:03:07.844Z,51.43
2018-06-01T09:05:34.438Z,53.27
2018-06-01T09:08:01.019Z,58.17
2018-06-01T09:10:27.604Z,51.60
2018-06-01T09:12:54.182Z,53.53
2018-06-01T09:15:20.765Z,58.17
2018-06-01T09:17:50.858Z,56.80
2018-06-01T09:20:19.535Z,50.10
2018-06-01T09:22:46.117Z,52.80
2018-06-01T09:25:12.702Z,53.73
2018-06-01T09:27:39.285Z,55.53
2018-06-01T09:30:05.872Z,48.93
2018-06-01T09:32:32.455Z,49.90
2018-06-01T09:34:59.082Z,44.27
2018-06-01T09:37:25.666Z,46.57
2018-06-01T09:39:52.680Z,31.93
2018-06-01T09:42:20.618Z,25.77
2018-06-01T09:44:47.207Z,20.60
2018-06-01T09:47:13.793Z,23.33
2018-06-01T09:49:40.374Z,22.03
2018-06-01T09:52:06.969Z,20.40
2018-06-01T09:54:33.561Z,18.77
2018-06-01T09:57:00.134Z,19.30
2018-06-01T09:59:26.752Z,23.40
2018-06-01T10:01:53.325Z,23.83
2018-06-01T10:04:19.920Z,22.13
2018-06-01T10:06:46.485Z,21.40
2018-06-01T10:09:13.066Z,23.80
2018-06-01T10:11:39.646Z,20.57
2018-06-01T10:14:06.249Z,22.07
2018-06-01T10:16:32.826Z,24.97
2018-06-01T10:18:59.403Z,23.73
2018-06-01T10:21:25.989Z,26.73
2018-06-01T10:23:52.613Z,23.37
2018-06-01T10:26:19.201Z,25.80
2018-06-01T10:28:45.778Z,29.23
2018-06-01T10:31:12.358Z,26.60
2018-06-01T10:33:38.995Z,24.77
2018-06-01T10:36:05.562Z,23.70
2018-06-01T10:38:32.138Z,27.07
2018-06-01T10:40:58.757Z,23.90
2018-06-01T10:43:25.319Z,25.70
2018-06-01T10:45:52.723Z,26.97
2018-06-01T10:48:19.297Z,24.90
2018-06-01T10:50:45.885Z,27.13
2018-06-01T10:53:13.316Z,28.87
2018-06-01T10:55:39.902Z,26.87
2018-06-01T10:58:06.486Z,25.60
2018-06-01T11:00:33.070Z,27.10
2018-06-01T11:02:59.674Z,25.73
2018-06-01T11:05:26.262Z,28.13
2018-06-01T11:07:52.852Z,24.00
2018-06-01T11:10:19.421Z,22.00
2018-06-01T11:12:46.049Z,25.73
2018-06-01T11:15:12.629Z,29.03
2018-06-01T11:17:39.205Z,24.70
2018-06-01T11:20:05.792Z,27.20
2018-06-01T11:22:32.382Z,21.20
2018-06-01T11:24:58.971Z,18.63
2018-06-01T11:27:25.545Z,16.40
2018-06-01T11:29:52.137Z,11.40
2018-06-01T11:32:18.717Z,12.90
2018-06-01T11:34:45.269Z,8.60
2018-06-01T11:37:11.845Z,5.80
2018-06-01T11:39:38.428Z,7.40
2018-06-01T11:42:05.003Z,7.87
2018-06-01T11:44:31.565Z,4.90
2018-06-01T11:46:58.156Z,5.43
2018-06-01T11:49:24.819Z,6.13
2018-06-01T11:51:51.425Z,4.77
2018-06-01T11:54:18.001Z,5.70
2018-06-01T11:56:44.574Z,8.80
2018-06-01T11:59:11.149Z,5.43
2018-06-01T12:01:37.750Z,7.20
2018-06-01T12:04:04.325Z,8.77
2018-06-01T12:06:30.921Z,5.57
2018-06-01T12:08:57.555Z,5.60
2018-06-01T12:11:24.129Z,5.30
2018-06-01T12:13:50.712Z,5.50
2018-06-01T12:16:17.301Z,7.70
2018-06-01T12:18:44.924Z,6.53
2018-06-01T12:21:11.499Z,7.17
2018-06-01T12:23:38.093Z,6.27
2018-06-01T12:26:04.669Z,6.43
2018-06-01T12:28:31.280Z,6.83
2018-06-01T12:30:57.853Z,5.67
2018-06-01T12:33:24.431Z,6.27
2018-06-01T12:35:51.446Z,5.53
2018-06-01T12:38:18.091Z,10.03
2018-06-01T12:40:45.854Z,6.10
2018-06-01T12:43:13.192Z,5.97
2018-06-01T12:45:39.758Z,6.00
2018-06-01T12:48:06.334Z,5.40
2018-06-01T12:50:32.964Z,5.13
2018-06-01T12:52:59.535Z,4.60
2018-06-01T12:55:26.114Z,4.67
2018-06-01T12:57:54.290Z,5.70
2018-06-01T13:00:20.881Z,4.27
2018-06-01T13:02:47.489Z,6.80
2018-06-01T13:05:14.068Z,5.47
2018-06-01T13:07:40.642Z,4.07
2018-06-01T13:10:07.206Z,3.53
2018-06-01T13:12:33.815Z,3.60
2018-06-01T13:15:00.381Z,3.57
2018-06-01T13:17:26.950Z,3.50
2018-06-01T13:19:53.522Z,3.20
2018-06-01T13:22:20.099Z,3.43
2018-06-01T13:24:46.680Z,3.67
2018-06-01T13:27:13.270Z,3.30
2018-06-01T13:29:39.970Z,4.83
2018-06-01T13:32:06.559Z,5.10
2018-06-01T13:34:33.136Z,6.70
2018-06-01T13:36:59.799Z,4.50
2018-06-01T13:39:26.353Z,7.43
2018-06-01T13:41:52.994Z,4.43
2018-06-01T13:44:19.744Z,4.90
2018-06-01T13:46:46.478Z,5.73
2018-06-01T13:49:13.057Z,5.70
2018-06-01T13:51:39.654Z,4.73
2018-06-01T13:54:06.333Z,5.43
2018-06-01T13:56:32.899Z,5.70
2018-06-01T13:58:59.495Z,5.07
2018-06-01T14:01:26.094Z,5.60
2018-06-01T14:03:52.657Z,10.07
2018-06-01T14:06:19.261Z,7.93
2018-06-01T14:08:45.850Z,5.00
2018-06-01T14:11:12.418Z,6.73
2018-06-01T14:13:38.993Z,8.30
2018-06-01T14:16:06.209Z,7.87
2018-06-01T14:18:32.810Z,7.60
2018-06-01T14:20:59.390Z,9.40
2018-06-01T14:23:26.007Z,8.50
2018-06-01T14:25:52.736Z,9.87
2018-06-01T14:28:21.082Z,9.63
2018-06-01T14:30:47.648Z,11.23
2018-06-01T14:33:14.238Z,11.10
2018-06-01T14:35:40.809Z,8.47
2018-06-01T14:38:07.392Z,10.30
2018-06-01T14:40:34.008Z,12.47
2018-06-01T14:43:00.611Z,9.80
2018-06-01T14:45:27.190Z,9.67
2018-06-01T14:47:53.777Z,10.27
2018-06-01T14:50:20.354Z,10.27
2018-06-01T14:52:46.924Z,8.57
2018-06-01T14:55:13.512Z,9.57
2018-06-01T14:57:41.404Z,8.40
2018-06-01T15:00:07.971Z,8.27
2018-06-01T15:02:34.582Z,9.40
2018-06-01T15:05:01.165Z,10.80
2018-06-01T15:07:27.851Z,9.33
2018-06-01T15:09:54.416Z,12.77
2018-06-01T15:12:21.985Z,9.80
2018-06-01T15:14:48.658Z,10.10
2018-06-01T15:17:15.315Z,9.90
2018-06-01T15:19:42.502Z,9.70
2018-06-01T15:22:09.082Z,9.53
2018-06-01T15:24:35.659Z,9.90
2018-06-01T15:27:02.233Z,8.17
2018-06-01T15:29:28.813Z,10.27
2018-06-01T15:31:55.387Z,11.20
2018-06-01T15:34:21.961Z,9.30
2018-06-01T15:36:48.537Z,10.87
2018-06-01T15:39:15.129Z,11.10
2018-06-01T15:41:41.749Z,10.80
2018-06-01T15:44:09.149Z,8.50
2018-06-01T15:46:35.710Z,9.40
2018-06-01T15:49:02.327Z,10.30
2018-06-01T15:51:28.869Z,8.63
2018-06-01T15:53:55.441Z,8.97
2018-06-01T15:56:22.040Z,7.00
2018-06-01T15:58:48.690Z,8.00
2018-06-01T16:01:15.184Z,8.97
2018-06-01T16:03:42.577Z,5.90
2018-06-01T16:06:09.185Z,6.00
2018-06-01T16:08:35.795Z,6.43
2018-06-01T16:11:02.366Z,6.03
2018-06-01T16:13:28.928Z,7.43
2018-06-01T16:15:55.508Z,9.90
2018-06-01T16:18:22.077Z,7.30
2018-06-01T16:20:48.907Z,7.90
2018-06-01T16:23:15.481Z,12.13
2018-06-01T16:25:42.063Z,10.50
2018-06-01T16:28:08.686Z,8.80
2018-06-01T16:30:35.306Z,13.57
2018-06-01T16:33:01.881Z,7.73
2018-06-01T16:35:28.461Z,10.33
2018-06-01T16:37:55.069Z,8.27
2018-06-01T16:40:21.637Z,8.73
2018-06-01T16:42:48.219Z,14.63
2018-06-01T16:45:14.850Z,12.43
2018-06-01T16:47:41.449Z,12.00
2018-06-01T16:50:08.014Z,9.07
2018-06-01T16:52:34.592Z,12.63
2018-06-01T16:55:02.098Z,10.63
2018-06-01T16:57:28.700Z,13.30
2018-06-01T16:59:58.525Z,10.87
2018-06-01T17:02:25.114Z,12.33
2018-06-01T17:04:51.691Z,12.13
2018-06-01T17:07:18.293Z,12.47
2018-06-01T17:12:17.413Z,16.40
2018-06-01T17:14:44.389Z,11.50
2018-06-01T17:17:11.065Z,15.67
2018-06-01T17:19:37.633Z,18.23
2018-06-01T17:22:04.250Z,14.40
2018-06-01T17:24:30.826Z,15.53
2018-06-01T17:26:57.415Z,15.13
2018-06-01T17:29:24.039Z,13.77
2018-06-01T17:31:50.621Z,13.20
2018-06-01T17:34:17.203Z,13.80
2018-06-01T17:36:43.809Z,16.47
2018-06-01T17:39:10.392Z,19.30
2018-06-01T17:41:37.063Z,18.17
2018-06-01T17:44:03.618Z,14.53
2018-06-01T17:46:30.192Z,15.70
2018-06-01T17:48:56.828Z,25.00
2018-06-01T17:51:27.569Z,29.40
2018-06-01T17:53:54.158Z,35.30
2018-06-01T17:56:20.733Z,20.30
2018-06-01T17:58:47.313Z,29.23
2018-06-01T18:01:13.905Z,18.73
2018-06-01T18:03:42.592Z,21.10
2018-06-01T18:06:16.661Z,21.77
2018-06-01T18:08:43.238Z,25.43
2018-06-01T18:11:09.817Z,21.13
2018-06-01T18:13:36.397Z,27.30
2018-06-01T18:16:03.003Z,22.27
2018-06-01T18:18:29.593Z,24.17
2018-06-01T18:20:56.164Z,27.97
2018-06-01T18:23:23.051Z,27.43
2018-06-01T18:25:49.629Z,24.40
2018-06-01T18:28:16.214Z,31.63
2018-06-01T18:30:42.826Z,26.03
2018-06-01T18:33:09.901Z,25.97
2018-06-01T18:35:36.513Z,25.13
2018-06-01T18:38:03.085Z,27.10
2018-06-01T18:40:29.674Z,28.40
2018-06-01T18:42:56.266Z,28.97
2018-06-01T18:45:22.843Z,29.00
2018-06-01T18:47:49.423Z,25.67
2018-06-01T18:50:15.997Z,28.10
2018-06-01T18:52:42.594Z,30.10
2018-06-01T18:55:09.177Z,30.13
2018-06-01T18:57:35.761Z,25.07
2018-06-01T19:00:02.338Z,30.10
2018-06-01T19:02:28.921Z,29.10
2018-06-01T19:04:56.430Z,28.67
2018-06-01T19:07:23.014Z,29.83
2018-06-01T19:09:49.602Z,28.40
2018-06-01T19:12:16.184Z,32.03
2018-06-01T19:14:42.792Z,26.93
2018-06-01T19:17:09.366Z,27.07
2018-06-01T19:19:35.943Z,26.43
2018-06-01T19:22:02.525Z,27.47
2018-06-01T19:24:29.115Z,27.33
2018-06-01T19:26:55.705Z,29.13
2018-06-01T19:29:22.306Z,27.33
2018-06-01T19:31:48.893Z,30.73
2018-06-01T19:34:15.465Z,30.00
2018-06-01T19:36:42.045Z,34.80
2018-06-01T19:39:08.637Z,37.57
2018-06-01T19:41:35.266Z,40.70
2018-06-01T19:44:01.853Z,33.27
2018-06-01T19:46:28.545Z,36.93
2018-06-01T19:48:55.127Z,34.13
2018-06-01T19:51:21.700Z,45.20
2018-06-01T19:53:48.285Z,36.27
2018-06-01T19:56:14.878Z,39.27
2018-06-01T19:58:41.461Z,41.07
2018-06-01T20:01:08.106Z,44.10
2018-06-01T20:03:34.625Z,44.00
2018-06-01T20:06:01.221Z,52.10
2018-06-01T20:08:27.785Z,43.57
2018-06-01T20:10:54.377Z,43.13
2018-06-01T20:13:21.072Z,40.73
2018-06-01T20:15:47.542Z,51.60
2018-06-01T20:18:14.268Z,44.67
2018-06-01T20:20:41.171Z,48.50
2018-06-01T20:23:07.749Z,50.30
2018-06-01T20:25:34.325Z,52.50
2018-06-01T20:28:00.915Z,47.50
2018-06-01T20:30:27.497Z,54.70
2018-06-01T20:35:27.158Z,47.80
2018-06-01T20:37:53.733Z,45.90
2018-06-01T20:40:20.321Z,43.93
2018-06-01T20:42:46.893Z,48.37
2018-06-01T20:45:13.513Z,51.20
2018-06-01T20:47:40.085Z,46.90
2018-06-01T20:50:06.689Z,46.70
2018-06-01T20:52:33.265Z,48.27
2018-06-01T20:54:59.849Z,59.30
2018-06-01T20:57:26.439Z,45.80
2018-06-01T20:59:53.036Z,52.20
2018-06-01T21:02:19.629Z,48.10
2018-06-01T21:04:47.847Z,48.80
2018-06-01T21:07:14.453Z,49.67
2018-06-01T21:09:41.084Z,47.93
2018-06-01T21:12:07.617Z,56.60
2018-06-01T21:14:36.110Z,48.10
2018-06-01T21:17:02.702Z,50.10
2018-06-01T21:19:29.271Z,51.00
2018-06-01T21:21:55.900Z,53.93
2018-06-01T21:24:22.488Z,51.33
2018-06-01T21:26:50.400Z,53.23
2018-06-01T21:29:16.973Z,56.50
2018-06-01T21:31:43.610Z,53.93
2018-06-01T21:34:10.178Z,53.67
2018-06-01T21:36:36.761Z,47.73
2018-06-01T21:39:03.356Z,49.27
2018-06-01T21:41:29.926Z,50.30
2018-06-01T21:43:56.513Z,54.67
2018-06-01T21:46:23.092Z,51.73
2018-06-01T21:48:49.681Z,56.20
2018-06-01T21:51:16.273Z,55.57
2018-06-01T21:53:42.845Z,52.47
2018-06-01T21:56:09.447Z,47.37
2018-06-01T21:58:36.034Z,53.60
2018-06-01T22:01:02.618Z,56.70
2018-06-01T22:03:29.199Z,53.57
2018-06-01T22:05:55.839Z,50.60
2018-06-01T22:08:22.408Z,54.80
2018-06-01T22:10:48.990Z,56.00
2018-06-01T22:13:15.576Z,53.73
2018-06-01T22:15:42.149Z,48.83
2018-06-01T22:18:08.740Z,52.43
2018-06-01T22:20:35.338Z,52.70
2018-06-01T22:23:01.906Z,51.70
2018-06-01T22:25:28.483Z,56.57
2018-06-01T22:27:55.081Z,49.57
2018-06-01T22:30:21.697Z,51.90
2018-06-01T22:32:48.254Z,47.20
2018-06-01T22:35:14.853Z,51.07
2018-06-01T22:37:41.430Z,49.80
2018-06-01T22:40:08.017Z,48.03
2018-06-01T22:42:34.599Z,52.77
2018-06-01T22:45:01.175Z,48.73
2018-06-01T22:47:27.762Z,46.80
2018-06-01T22:49:54.341Z,50.87
2018-06-01T22:52:20.966Z,50.13
2018-06-01T22:54:47.599Z,50.70
2018-06-01T22:57:14.154Z,51.03
2018-06-01T22:59:40.747Z,53.87
2018-06-01T23:02:07.322Z,54.27
2018-06-01T23:04:33.910Z,54.33
2018-06-01T23:07:00.505Z,43.03
2018-06-01T23:09:27.197Z,53.47
2018-06-01T23:11:53.785Z,51.93
2018-06-01T23:14:20.370Z,52.27
2018-06-01T23:16:46.958Z,55.03
2018-06-01T23:19:13.533Z,52.10
2018-06-01T23:21:40.115Z,47.30
2018-06-01T23:24:06.699Z,46.87
2018-06-01T23:26:33.289Z,57.97
2018-06-01T23:28:59.874Z,54.13
2018-06-01T23:31:26.510Z,46.33
2018-06-01T23:33:53.099Z,58.53
2018-06-01T23:36:19.673Z,56.77
2018-06-01T23:38:46.299Z,56.47
2018-06-01T23:41:12.869Z,59.73
2018-06-01T23:43:39.475Z,53.97
2018-06-01T23:46:06.058Z,61.40
2018-06-01T23:48:32.901Z,62.13
2018-06-01T23:50:59.477Z,63.27
2018-06-01T23:53:26.050Z,62.03
2018-06-01T23:55:52.641Z,63.10
2018-06-01T23:58:19.210Z,70.63
